Time;durP1;ratioP1;P1;durP2;ratioP2;P2;SDS_P1;SDS_P2;PMS_P1;PMS_P2;Temp;Humidity;BMP_temperature;BMP_pressure;BME280_temperature;BME280_humidity;BME280_pressure;Samples;Min_cycle;Max_cycle;Signal;HPM_P1;HPM_P2
2021/05/01 00:00:00;;;;;;;20.17;15.20;;;8.50;98.30;;;;;;5096083;23;20435;-83
2021/05/01 00:02:05;;;;;;;17.77;14.20;;;8.60;98.30;;;;;;5104098;23;20432;-83
2021/05/01 00:04:06;;;;;;;18.90;15.10;;;8.50;98.30;;;;;;5096252;23;20460;-82
2021/05/01 00:06:09;;;;;;;19.00;15.37;;;8.50;98.30;;;;;;5095637;23;20436;-83
2021/05/01 00:08:11;;;;;;;16.40;13.87;;;8.50;98.30;;;;;;5103414;23;20465;-82
2021/05/01 00:10:13;;;;;;;17.30;14.23;;;8.60;98.30;;;;;;5104267;23;20429;-80
2021/05/01 00:12:15;;;;;;;19.63;15.97;;;8.60;98.30;;;;;;5095979;23;20469;-81
2021/05/01 00:14:17;;;;;;;19.37;14.30;;;8.60;98.30;;;;;;5096428;23;20434;-82
2021/05/01 00:16:19;;;;;;;18.63;14.30;;;8.50;98.30;;;;;;5104784;23;20517;-82
2021/05/01 00:18:21;;;;;;;15.93;13.50;;;8.50;98.30;;;;;;5095442;23;20433;-83
2021/05/01 00:20:23;;;;;;;16.30;13.77;;;8.50;98.30;;;;;;5095098;23;20784;-83
2021/05/01 00:22:25;;;;;;;17.20;13.67;;;8.50;98.30;;;;;;5104340;23;20441;-82
2021/05/01 00:24:27;;;;;;;17.10;14.23;;;8.60;98.30;;;;;;5096514;23;20454;-82
2021/05/01 00:26:29;;;;;;;15.67;13.97;;;8.60;98.30;;;;;;5096098;23;20436;-82
2021/05/01 00:28:31;;;;;;;15.90;13.57;;;8.60;98.30;;;;;;5096334;23;20509;-81
2021/05/01 00:30:33;;;;;;;17.50;13.73;;;8.60;98.30;;;;;;5097295;23;20437;-83
2021/05/01 00:32:35;;;;;;;16.23;13.43;;;8.60;98.30;;;;;;5105521;23;20457;-83
2021/05/01 00:34:37;;;;;;;17.57;13.63;;;8.50;98.30;;;;;;5106117;23;20454;-82
2021/05/01 00:36:39;;;;;;;18.63;13.90;;;8.40;98.30;;;;;;5097096;23;20514;-83
2021/05/01 00:38:43;;;;;;;16.70;13.47;;;8.40;98.30;;;;;;5098971;23;20433;-83
2021/05/01 00:40:45;;;;;;;14.60;11.97;;;8.40;98.30;;;;;;5095015;23;21019;-82
2021/05/01 00:42:47;;;;;;;15.30;13.50;;;8.40;98.30;;;;;;5094217;23;20464;-79
2021/05/01 00:44:49;;;;;;;15.70;13.00;;;8.50;98.30;;;;;;5094734;23;20437;-80
2021/05/01 00:46:51;;;;;;;15.23;12.37;;;8.40;98.30;;;;;;5102466;23;20433;-80
2021/05/01 00:48:52;;;;;;;14.20;12.20;;;8.40;98.30;;;;;;5102551;23;20793;-81
2021/05/01 00:50:54;;;;;;;22.13;12.87;;;8.40;98.30;;;;;;5094723;23;20557;-83
2021/05/01 00:52:56;;;;;;;13.43;11.70;;;8.30;98.30;;;;;;5104144;23;20462;-81
2021/05/01 00:55:11;;;;;;;14.57;12.07;;;8.40;98.30;;;;;;5103383;23;20833;-80
2021/05/01 00:57:13;;;;;;;13.40;11.53;;;8.40;98.30;;;;;;5096286;23;20945;-83
2021/05/01 00:59:17;;;;;;;16.67;12.00;;;8.50;98.30;;;;;;5094908;23;20470;-82
2021/05/01 01:01:19;;;;;;;15.10;11.67;;;8.40;98.30;;;;;;5095362;23;20425;-83
2021/05/01 01:03:21;;;;;;;11.50;10.30;;;8.50;98.30;;;;;;5095223;23;20462;-83
2021/05/01 01:05:23;;;;;;;13.20;11.50;;;8.50;98.30;;;;;;5095383;23;20545;-83
2021/05/01 01:07:26;;;;;;;11.77;10.40;;;8.60;98.30;;;;;;5095076;23;20461;-82
2021/05/01 01:09:28;;;;;;;15.70;11.20;;;8.50;98.30;;;;;;5101688;23;20446;-81
2021/05/01 01:11:31;;;;;;;12.57;10.23;;;8.60;98.30;;;;;;5093970;23;20795;-81
2021/05/01 01:13:41;;;;;;;13.00;11.17;;;8.60;98.30;;;;;;5102209;23;20489;-80
2021/05/01 01:15:43;;;;;;;15.77;10.60;;;8.60;98.30;;;;;;5094999;23;20461;-82
2021/05/01 01:17:44;;;;;;;11.87;10.70;;;8.60;98.30;;;;;;5103229;23;20433;-81
2021/05/01 01:19:46;;;;;;;14.20;10.40;;;8.70;98.30;;;;;;5089163;23;20455;-82
2021/05/01 01:21:50;;;;;;;14.00;10.80;;;8.70;98.30;;;;;;5095600;23;20430;-82
2021/05/01 01:24:03;;;;;;;13.03;10.90;;;8.60;98.30;;;;;;5096321;23;20466;-81
2021/05/01 01:26:05;;;;;;;11.67;10.47;;;8.60;98.30;;;;;;5095610;23;20469;-82
2021/05/01 01:28:32;;;;;;;13.03;10.93;;;8.60;98.30;;;;;;5104044;23;20503;-83
2021/05/01 01:30:35;;;;;;;12.33;10.53;;;8.70;98.30;;;;;;5095563;23;20436;-81
2021/05/01 01:32:37;;;;;;;13.00;11.03;;;8.70;98.30;;;;;;5095264;23;20959;-81
2021/05/01 01:34:42;;;;;;;12.53;11.00;;;8.80;98.30;;;;;;5104940;23;20788;-81
2021/05/01 01:36:44;;;;;;;12.40;10.03;;;8.80;98.30;;;;;;5104518;23;20457;-82
2021/05/01 01:38:45;;;;;;;12.40;10.00;;;8.90;98.30;;;;;;5096470;23;20928;-83
2021/05/01 01:40:50;;;;;;;14.13;10.67;;;8.80;98.30;;;;;;5097835;23;20451;-82
2021/05/01 01:42:53;;;;;;;12.97;10.90;;;8.90;98.30;;;;;;5106064;23;20449;-81
2021/05/01 01:44:56;;;;;;;12.13;10.23;;;8.90;98.30;;;;;;5107641;23;20461;-82
2021/05/01 01:46:58;;;;;;;13.53;9.83;;;8.90;98.30;;;;;;5101973;23;20777;-83
2021/05/01 01:49:00;;;;;;;12.13;9.60;;;8.80;98.30;;;;;;5102072;23;20472;-82
2021/05/01 01:51:03;;;;;;;12.67;10.47;;;8.80;98.30;;;;;;5093731;23;20437;-83
2021/05/01 01:53:04;;;;;;;13.00;11.13;;;8.80;98.30;;;;;;5095452;23;20888;-83
2021/05/01 01:55:08;;;;;;;13.57;12.17;;;8.90;98.30;;;;;;5094742;23;20458;-80
2021/05/01 01:57:11;;;;;;;13.27;10.87;;;8.80;98.30;;;;;;5102673;23;20443;-83
2021/05/01 01:59:14;;;;;;;13.00;10.10;;;8.80;98.30;;;;;;5093565;23;21004;-83
2021/05/01 02:01:16;;;;;;;13.43;10.70;;;8.90;98.30;;;;;;5095193;23;20462;-82
2021/05/01 02:03:18;;;;;;;13.40;10.90;;;8.80;98.30;;;;;;5094581;23;20432;-83
2021/05/01 02:05:20;;;;;;;13.47;11.30;;;8.80;98.30;;;;;;5094299;23;20871;-81
2021/05/01 02:07:22;;;;;;;12.10;10.80;;;8.80;98.30;;;;;;5094786;23;20466;-83
2021/05/01 02:09:24;;;;;;;15.73;11.30;;;8.80;98.30;;;;;;5093592;23;20499;-82
2021/05/01 02:11:25;;;;;;;16.47;11.63;;;8.80;98.30;;;;;;5094188;23;20466;-82
2021/05/01 02:13:28;;;;;;;14.63;11.30;;;8.70;98.30;;;;;;5094665;23;20458;-81
2021/05/01 02:15:30;;;;;;;12.63;10.73;;;8.70;98.30;;;;;;5103614;23;20429;-82
2021/05/01 02:17:32;;;;;;;13.10;11.67;;;8.70;98.30;;;;;;5094991;23;20767;-83
2021/05/01 02:19:34;;;;;;;12.77;11.47;;;8.70;98.30;;;;;;5103281;23;20470;-83
2021/05/01 02:21:36;;;;;;;13.73;10.90;;;8.80;98.30;;;;;;5103836;23;20447;-81
2021/05/01 02:23:38;;;;;;;14.00;11.27;;;8.70;98.30;;;;;;5096356;23;20542;-83
2021/05/01 02:25:40;;;;;;;12.47;10.23;;;8.80;98.30;;;;;;5096028;23;20461;-81
2021/05/01 02:27:42;;;;;;;14.90;11.20;;;8.70;98.30;;;;;;5104240;23;21079;-83
2021/05/01 02:29:45;;;;;;;14.27;10.70;;;8.70;98.30;;;;;;5096115;23;20436;-82
2021/05/01 02:31:46;;;;;;;11.80;10.60;;;8.80;98.30;;;;;;5104443;23;20470;-82
2021/05/01 02:33:49;;;;;;;15.70;11.50;;;8.80;98.30;;;;;;5097005;23;20455;-82
2021/05/01 02:35:51;;;;;;;13.70;10.60;;;8.90;98.30;;;;;;5096885;23;20800;-81
2021/05/01 02:37:53;;;;;;;15.40;11.83;;;8.80;98.30;;;;;;5097387;23;20792;-81
2021/05/01 02:39:55;;;;;;;13.03;11.00;;;8.70;98.30;;;;;;5101945;23;20472;-82
2021/05/01 02:41:57;;;;;;;13.67;10.60;;;8.70;98.30;;;;;;5102420;23;20454;-81
2021/05/01 02:43:59;;;;;;;13.80;10.87;;;8.60;98.30;;;;;;5110075;23;20447;-83
2021/05/01 02:46:02;;;;;;;21.10;16.50;;;8.60;98.30;;;;;;5096018;23;20968;-82
2021/05/01 02:48:08;;;;;;;17.30;14.33;;;8.60;98.30;;;;;;5096267;23;20461;-81
2021/05/01 02:50:12;;;;;;;21.73;14.90;;;8.60;98.30;;;;;;5098450;23;20495;-80
2021/05/01 02:52:14;;;;;;;13.20;11.57;;;8.70;98.30;;;;;;5096181;23;21027;-81
2021/05/01 02:54:16;;;;;;;13.90;11.33;;;8.60;98.30;;;;;;5095820;23;20429;-83
2021/05/01 02:56:22;;;;;;;14.63;11.07;;;8.60;98.30;;;;;;5102142;23;20512;-80
2021/05/01 02:58:24;;;;;;;16.80;11.23;;;8.70;98.30;;;;;;5102316;23;21131;-81
2021/05/01 03:00:27;;;;;;;14.30;11.77;;;8.70;98.30;;;;;;5094827;23;20461;-81
2021/05/01 03:02:31;;;;;;;14.53;11.90;;;8.70;98.30;;;;;;5094128;23;20457;-81
2021/05/01 03:04:33;;;;;;;12.87;11.30;;;8.70;98.30;;;;;;5103213;23;20502;-83
2021/05/01 03:06:35;;;;;;;15.30;11.47;;;8.60;98.30;;;;;;5094816;23;20461;-83
2021/05/01 03:08:37;;;;;;;11.87;10.53;;;8.60;98.30;;;;;;5102439;23;20455;-82
2021/05/01 03:10:39;;;;;;;22.73;12.50;;;8.60;98.30;;;;;;5102196;23;20456;-82
2021/05/01 03:12:41;;;;;;;15.37;11.20;;;8.60;98.30;;;;;;5102273;23;20915;-81
2021/05/01 03:14:44;;;;;;;14.47;11.23;;;8.60;98.30;;;;;;5102177;23;20457;-82
2021/05/01 03:16:46;;;;;;;14.27;11.00;;;8.50;98.30;;;;;;5094216;23;20458;-82
2021/05/01 03:18:49;;;;;;;14.73;12.50;;;8.50;98.30;;;;;;5100706;23;20513;-82
2021/05/01 03:20:52;;;;;;;12.93;11.50;;;8.40;98.30;;;;;;5093543;23;20845;-82
2021/05/01 03:22:54;;;;;;;13.17;11.40;;;8.50;98.30;;;;;;5093758;23;20466;-83
2021/05/01 03:24:56;;;;;;;15.50;11.20;;;8.50;98.30;;;;;;5089868;23;20430;-83
2021/05/01 03:26:58;;;;;;;12.80;10.77;;;8.50;98.30;;;;;;5088711;23;20458;-82
2021/05/01 03:29:00;;;;;;;14.43;11.00;;;8.50;98.30;;;;;;5096378;23;20984;-81
2021/05/01 03:31:01;;;;;;;15.03;12.47;;;8.40;98.30;;;;;;5088488;23;20434;-82
2021/05/01 03:33:03;;;;;;;12.60;11.00;;;8.40;98.30;;;;;;5089240;23;20799;-81
2021/05/01 03:35:08;;;;;;;18.07;11.80;;;8.40;98.30;;;;;;5088777;23;20443;-82
2021/05/01 03:37:10;;;;;;;14.20;11.10;;;8.40;98.30;;;;;;5089165;23;20429;-82
2021/05/01 03:39:15;;;;;;;15.00;11.20;;;8.40;98.30;;;;;;5088526;23;20459;-81
2021/05/01 03:41:17;;;;;;;17.70;11.63;;;8.60;98.30;;;;;;5089084;23;20762;-83
2021/05/01 03:43:20;;;;;;;16.43;12.20;;;8.50;98.30;;;;;;5089336;23;21224;-82
2021/05/01 03:45:22;;;;;;;15.27;11.23;;;8.40;98.30;;;;;;5088824;23;20461;-81
2021/05/01 03:47:24;;;;;;;17.37;11.10;;;8.50;98.30;;;;;;5097692;23;20440;-82
2021/05/01 03:49:26;;;;;;;14.50;11.40;;;8.50;98.30;;;;;;5097452;23;20458;-81
2021/05/01 03:51:29;;;;;;;14.30;11.17;;;8.40;98.30;;;;;;5090155;23;20465;-81
2021/05/01 03:53:30;;;;;;;16.03;11.57;;;8.40;98.30;;;;;;5090493;23;20451;-81
2021/05/01 03:55:32;;;;;;;14.50;12.03;;;8.40;98.30;;;;;;5087780;23;21075;-81
2021/05/01 03:57:37;;;;;;;15.83;11.30;;;8.40;98.30;;;;;;5088348;23;20461;-82
2021/05/01 03:59:39;;;;;;;23.77;16.67;;;8.40;98.30;;;;;;5088567;23;20792;-81
2021/05/01 04:01:41;;;;;;;14.93;11.50;;;8.50;98.30;;;;;;5088676;23;20459;-82
2021/05/01 04:03:43;;;;;;;17.80;12.47;;;8.60;98.30;;;;;;5088369;23;20433;-81
2021/05/01 04:05:44;;;;;;;13.63;11.10;;;8.50;98.30;;;;;;5088293;23;20540;-81
2021/05/01 04:07:48;;;;;;;17.20;11.83;;;8.50;98.30;;;;;;5096862;23;20762;-82
2021/05/01 04:09:52;;;;;;;17.93;14.00;;;8.40;98.30;;;;;;5088264;23;20437;-81
2021/05/01 04:11:54;;;;;;;16.83;12.47;;;8.30;98.30;;;;;;5088753;23;20756;-82
2021/05/01 04:13:55;;;;;;;16.23;11.47;;;8.30;98.30;;;;;;5088393;23;20436;-81
2021/05/01 04:15:57;;;;;;;15.97;13.03;;;8.20;98.30;;;;;;5095073;23;20944;-81
2021/05/01 04:17:59;;;;;;;12.93;10.63;;;8.40;98.30;;;;;;5087259;23;20468;-80
2021/05/01 04:20:02;;;;;;;15.57;11.80;;;8.30;98.30;;;;;;5087562;23;20458;-81
2021/05/01 04:22:06;;;;;;;17.30;11.43;;;8.40;98.30;;;;;;5097253;23;20430;-82
2021/05/01 04:24:11;;;;;;;15.40;11.97;;;8.30;98.30;;;;;;5090023;23;20460;-81
2021/05/01 04:26:14;;;;;;;13.00;11.60;;;8.10;98.30;;;;;;5089897;23;20470;-80
2021/05/01 04:28:16;;;;;;;13.30;11.67;;;8.30;98.30;;;;;;5090040;23;20494;-82
2021/05/01 04:30:18;;;;;;;15.43;12.20;;;8.20;98.30;;;;;;5090904;23;20464;-82
2021/05/01 04:32:20;;;;;;;15.00;12.07;;;8.30;98.30;;;;;;5090287;23;20455;-82
2021/05/01 04:34:21;;;;;;;16.37;10.70;;;8.30;98.30;;;;;;5089680;23;20653;-81
2021/05/01 04:36:23;;;;;;;14.00;11.43;;;8.10;98.30;;;;;;5090455;23;20512;-82
2021/05/01 04:38:26;;;;;;;16.90;12.17;;;8.10;98.30;;;;;;5089834;23;20477;-81
2021/05/01 04:40:29;;;;;;;13.20;11.57;;;8.20;98.30;;;;;;5098583;23;20457;-82
2021/05/01 04:42:31;;;;;;;15.50;10.33;;;8.20;98.30;;;;;;5090254;23;20451;-82
2021/05/01 04:44:33;;;;;;;14.90;11.57;;;8.10;98.30;;;;;;5090671;23;20429;-80
2021/05/01 04:46:35;;;;;;;13.67;10.00;;;8.10;98.30;;;;;;5102249;23;20902;-82
2021/05/01 04:48:37;;;;;;;12.77;10.47;;;8.20;98.30;;;;;;5093351;23;20459;-80
2021/05/01 04:50:40;;;;;;;16.40;12.23;;;8.30;98.30;;;;;;5094622;23;20931;-81
2021/05/01 04:52:42;;;;;;;13.27;11.50;;;8.40;98.30;;;;;;5102721;23;20458;-82
2021/05/01 04:54:44;;;;;;;15.50;11.87;;;8.20;98.30;;;;;;5103314;23;20426;-80
2021/05/01 04:56:47;;;;;;;15.07;11.63;;;8.20;98.30;;;;;;5094247;23;20958;-81
2021/05/01 04:58:48;;;;;;;15.63;11.57;;;8.20;98.30;;;;;;5094369;23;20458;-81
2021/05/01 05:00:50;;;;;;;17.30;11.03;;;8.10;98.30;;;;;;5103526;23;20457;-82
2021/05/01 05:02:53;;;;;;;15.70;11.17;;;8.10;98.30;;;;;;5102198;23;20990;-81
2021/05/01 05:04:55;;;;;;;15.97;12.03;;;8.00;98.30;;;;;;5093589;23;20464;-81
2021/05/01 05:06:57;;;;;;;15.07;10.93;;;8.10;98.30;;;;;;5092778;23;20436;-82
2021/05/01 05:09:00;;;;;;;13.90;11.73;;;8.10;98.30;;;;;;5101425;23;20447;-81
2021/05/01 05:11:02;;;;;;;15.90;11.90;;;8.20;98.30;;;;;;5101361;23;20458;-81
2021/05/01 05:13:04;;;;;;;16.17;11.37;;;8.20;98.30;;;;;;5095820;23;20437;-82
2021/05/01 05:15:09;;;;;;;16.00;11.90;;;8.10;98.30;;;;;;5094259;23;20462;-80
2021/05/01 05:17:10;;;;;;;14.50;11.20;;;8.20;98.30;;;;;;5093101;23;20459;-80
2021/05/01 05:19:18;;;;;;;15.93;10.60;;;8.20;98.30;;;;;;5092553;23;20454;-81
2021/05/01 05:21:20;;;;;;;12.67;10.20;;;8.20;98.30;;;;;;5093385;23;20433;-80
2021/05/01 05:23:22;;;;;;;17.67;11.33;;;8.20;98.30;;;;;;5101799;23;20459;-81
2021/05/01 05:25:24;;;;;;;13.63;10.23;;;8.20;98.30;;;;;;5093622;23;20434;-81
2021/05/01 05:27:26;;;;;;;13.53;10.40;;;8.20;98.30;;;;;;5092197;23;20444;-81
2021/05/01 05:29:29;;;;;;;14.33;10.50;;;8.30;98.30;;;;;;5101083;23;20439;-82
2021/05/01 05:31:31;;;;;;;14.10;9.80;;;8.20;98.30;;;;;;5100890;23;20959;-80
2021/05/01 05:33:33;;;;;;;14.00;10.17;;;8.30;98.30;;;;;;5092948;23;20524;-82
2021/05/01 05:35:35;;;;;;;15.90;10.73;;;8.20;98.30;;;;;;5102128;23;20459;-81
2021/05/01 05:37:37;;;;;;;17.57;13.83;;;8.20;98.30;;;;;;5094119;23;20433;-81
2021/05/01 05:39:39;;;;;;;11.50;10.23;;;8.30;98.30;;;;;;5094027;23;20454;-81
2021/05/01 05:41:40;;;;;;;13.90;9.90;;;8.40;98.30;;;;;;5102330;23;20425;-81
2021/05/01 05:43:42;;;;;;;13.70;10.87;;;8.30;98.30;;;;;;5092507;23;20459;-81
2021/05/01 05:45:46;;;;;;;11.67;9.93;;;8.20;98.30;;;;;;5100616;23;20458;-81
2021/05/01 05:47:48;;;;;;;12.97;10.37;;;8.20;98.30;;;;;;5092193;23;20460;-81
2021/05/01 05:49:50;;;;;;;12.70;10.50;;;8.20;98.30;;;;;;5093026;23;20455;-80
2021/05/01 05:51:54;;;;;;;14.73;11.07;;;8.10;98.30;;;;;;5101167;23;20473;-81
2021/05/01 05:53:56;;;;;;;12.37;10.37;;;8.20;98.30;;;;;;5093334;23;20433;-81
2021/05/01 05:55:58;;;;;;;12.57;10.50;;;8.20;98.30;;;;;;5092428;23;21038;-81
2021/05/01 05:58:01;;;;;;;12.57;10.67;;;8.20;98.30;;;;;;5092166;23;20485;-81
2021/05/01 06:00:04;;;;;;;13.70;10.10;;;8.20;98.30;;;;;;5101111;23;20439;-80
2021/05/01 06:02:10;;;;;;;11.63;9.90;;;8.40;98.30;;;;;;5093499;23;20421;-81
2021/05/01 06:04:16;;;;;;;11.00;9.60;;;8.40;98.30;;;;;;5103066;23;20426;-82
2021/05/01 06:06:25;;;;;;;14.83;10.93;;;8.40;98.30;;;;;;5094094;23;20430;-81
2021/05/01 06:08:29;;;;;;;10.70;9.30;;;8.40;98.30;;;;;;5093400;23;20726;-82
2021/05/01 06:10:32;;;;;;;11.93;10.33;;;8.20;98.30;;;;;;5094467;23;20905;-83
2021/05/01 06:12:37;;;;;;;12.37;10.60;;;8.10;98.30;;;;;;5103183;23;20429;-81
2021/05/01 06:14:42;;;;;;;11.47;9.97;;;8.10;98.30;;;;;;5094681;23;20483;-81
2021/05/01 06:16:45;;;;;;;13.97;10.43;;;8.20;98.30;;;;;;5104444;23;20429;-81
2021/05/01 06:18:50;;;;;;;12.87;9.87;;;8.30;98.30;;;;;;5097053;23;20518;-80
2021/05/01 06:20:53;;;;;;;12.97;10.87;;;8.30;98.30;;;;;;5096726;23;20459;-82
2021/05/01 06:22:56;;;;;;;9.90;8.90;;;8.40;98.30;;;;;;5101642;23;20425;-80
2021/05/01 06:24:59;;;;;;;12.70;10.17;;;8.50;98.30;;;;;;5091555;23;20465;-80
2021/05/01 06:27:02;;;;;;;15.00;11.00;;;8.40;98.30;;;;;;5101082;23;20506;-80
2021/05/01 06:29:06;;;;;;;11.80;10.03;;;8.40;98.30;;;;;;5100210;23;20425;-81
2021/05/01 06:31:08;;;;;;;21.80;13.33;;;8.50;98.30;;;;;;5093161;23;20825;-81
2021/05/01 06:33:11;;;;;;;13.60;11.37;;;8.50;98.30;;;;;;5093153;23;20437;-80
2021/05/01 06:35:14;;;;;;;11.60;9.63;;;8.50;98.30;;;;;;5100162;23;20431;-80
2021/05/01 06:37:17;;;;;;;11.53;10.03;;;8.50;98.30;;;;;;5100352;23;20773;-80
2021/05/01 06:39:19;;;;;;;15.03;11.10;;;8.50;98.30;;;;;;5092778;23;20433;-79
2021/05/01 06:41:22;;;;;;;13.30;10.60;;;8.40;98.30;;;;;;5102395;23;20445;-80
2021/05/01 06:43:34;;;;;;;11.10;9.53;;;8.40;98.30;;;;;;5094122;23;20740;-80
2021/05/01 06:45:40;;;;;;;11.60;9.00;;;8.40;98.30;;;;;;5093488;23;20991;-80
2021/05/01 06:47:50;;;;;;;12.17;10.10;;;8.40;98.30;;;;;;5094045;23;20440;-80
2021/05/01 06:49:59;;;;;;;13.97;10.70;;;8.30;98.30;;;;;;5093913;23;20433;-81
2021/05/01 06:52:04;;;;;;;18.33;12.87;;;8.30;98.30;;;;;;5094131;23;20435;-80
2021/05/01 06:54:08;;;;;;;15.90;10.60;;;8.40;98.30;;;;;;5102200;23;20530;-82
2021/05/01 06:56:13;;;;;;;13.63;9.60;;;8.60;98.30;;;;;;5093123;23;20459;-81
2021/05/01 06:58:15;;;;;;;10.97;8.90;;;8.50;98.30;;;;;;5101237;23;20496;-80
2021/05/01 07:00:21;;;;;;;14.03;9.87;;;8.60;98.30;;;;;;5094002;23;21056;-81
2021/05/01 07:02:25;;;;;;;10.70;9.23;;;8.60;98.30;;;;;;5093030;23;20464;-81
2021/05/01 07:04:30;;;;;;;10.73;9.60;;;8.50;98.30;;;;;;5093097;23;20514;-80
2021/05/01 07:06:39;;;;;;;10.90;9.80;;;8.50;98.30;;;;;;5092075;23;21071;-81
2021/05/01 07:09:11;;;;;;;13.37;10.30;;;8.40;98.30;;;;;;5100391;23;20451;-82
2021/05/01 07:11:13;;;;;;;12.90;10.20;;;8.40;98.30;;;;;;5099953;23;20921;-82
2021/05/01 07:13:16;;;;;;;11.60;10.50;;;8.50;98.30;;;;;;5093300;23;21002;-80
2021/05/01 07:15:19;;;;;;;13.13;10.23;;;8.40;98.30;;;;;;5092784;23;20439;-80
2021/05/01 07:17:22;;;;;;;11.20;9.70;;;8.40;98.30;;;;;;5100394;23;21202;-82
2021/05/01 07:19:24;;;;;;;11.83;9.00;;;8.40;98.30;;;;;;5100726;23;20450;-80
2021/05/01 07:21:28;;;;;;;13.67;10.20;;;8.40;98.30;;;;;;5092845;23;20435;-81
2021/05/01 07:23:29;;;;;;;13.17;9.83;;;8.50;98.30;;;;;;5092568;23;20434;-82
2021/05/01 07:25:34;;;;;;;10.10;9.10;;;8.50;98.30;;;;;;5100814;23;20459;-82
2021/05/01 07:27:40;;;;;;;13.90;10.13;;;8.50;98.30;;;;;;5092605;23;20437;-82
2021/05/01 07:29:46;;;;;;;14.83;10.40;;;8.50;98.30;;;;;;5101518;23;21143;-80
2021/05/01 07:31:49;;;;;;;10.57;8.93;;;8.70;98.30;;;;;;5093502;23;20440;-81
2021/05/01 07:33:53;;;;;;;12.43;9.77;;;8.80;98.30;;;;;;5102342;23;20944;-83
2021/05/01 07:35:58;;;;;;;13.87;10.27;;;9.00;98.30;;;;;;5101872;23;21041;-81
2021/05/01 07:38:06;;;;;;;12.23;8.90;;;9.00;98.30;;;;;;5092974;23;21123;-81
2021/05/01 07:40:11;;;;;;;10.30;8.87;;;9.10;98.30;;;;;;5093995;23;20472;-80
2021/05/01 07:42:14;;;;;;;12.30;9.50;;;9.00;98.30;;;;;;5094260;23;20421;-81
2021/05/01 07:44:18;;;;;;;11.10;9.10;;;9.20;98.30;;;;;;5093638;23;20472;-82
2021/05/01 07:46:23;;;;;;;11.60;8.97;;;9.20;98.30;;;;;;5094535;23;20641;-81
2021/05/01 07:48:28;;;;;;;12.63;8.87;;;9.10;98.30;;;;;;5103597;23;20425;-82
2021/05/01 07:50:32;;;;;;;11.73;9.83;;;9.20;98.30;;;;;;5095264;23;20505;-82
2021/05/01 07:52:35;;;;;;;12.80;9.10;;;9.30;98.30;;;;;;5103261;23;20542;-81
2021/05/01 07:54:42;;;;;;;9.63;8.53;;;9.50;98.30;;;;;;5101933;23;21070;-82
2021/05/01 07:56:44;;;;;;;9.83;8.50;;;9.70;98.30;;;;;;5099863;23;20459;-82
2021/05/01 07:58:46;;;;;;;9.27;8.00;;;9.70;98.30;;;;;;5093512;23;20959;-82
2021/05/01 08:00:48;;;;;;;10.70;8.17;;;9.70;98.30;;;;;;5093991;23;20783;-81
2021/05/01 08:02:53;;;;;;;9.40;8.17;;;9.80;98.30;;;;;;5094574;23;20776;-80
2021/05/01 08:04:55;;;;;;;10.60;8.30;;;9.60;98.30;;;;;;5094570;23;20505;-81
2021/05/01 08:06:57;;;;;;;9.63;8.63;;;9.60;98.30;;;;;;5102108;23;20454;-80
2021/05/01 08:08:59;;;;;;;10.97;8.37;;;9.70;98.30;;;;;;5094252;23;20450;-80
2021/05/01 08:11:01;;;;;;;11.30;9.43;;;9.70;98.30;;;;;;5093836;23;20505;-80
2021/05/01 08:13:03;;;;;;;11.33;8.60;;;9.70;98.30;;;;;;5092968;23;20462;-81
2021/05/01 08:15:09;;;;;;;10.30;8.00;;;9.70;98.30;;;;;;5092735;23;20455;-79
2021/05/01 08:17:11;;;;;;;9.70;8.37;;;9.80;98.30;;;;;;5092197;23;20587;-80
2021/05/01 08:19:15;;;;;;;13.77;8.00;;;10.00;98.30;;;;;;5099550;23;20454;-82
2021/05/01 08:21:16;;;;;;;11.07;9.33;;;10.30;98.30;;;;;;5091452;23;20478;-80
2021/05/01 08:23:18;;;;;;;14.17;9.17;;;10.30;98.30;;;;;;5090837;23;20469;-80
2021/05/01 08:25:20;;;;;;;10.90;8.33;;;10.40;98.30;;;;;;5091372;23;20465;-79
2021/05/01 08:27:22;;;;;;;10.30;8.97;;;10.40;98.30;;;;;;5090767;23;20963;-82
2021/05/01 08:29:24;;;;;;;10.63;8.73;;;10.40;98.30;;;;;;5090763;23;20459;-80
2021/05/01 08:31:27;;;;;;;9.13;8.23;;;10.90;98.30;;;;;;5091390;23;20461;-81
2021/05/01 08:33:29;;;;;;;10.40;8.60;;;11.00;98.30;;;;;;5092025;23;20473;-80
2021/05/01 08:35:32;;;;;;;9.60;8.60;;;10.70;98.30;;;;;;5092290;23;20899;-79
2021/05/01 08:37:34;;;;;;;11.73;9.40;;;10.60;98.30;;;;;;5100705;23;20812;-81
2021/05/01 08:39:36;;;;;;;10.03;8.40;;;10.30;98.30;;;;;;5092073;23;20459;-80
2021/05/01 08:41:38;;;;;;;10.53;9.53;;;10.40;98.30;;;;;;5092386;23;20461;-82
2021/05/01 08:43:41;;;;;;;10.17;8.60;;;10.60;98.30;;;;;;5092691;23;20446;-80
2021/05/01 08:45:46;;;;;;;9.50;8.53;;;10.80;98.30;;;;;;5091828;23;20458;-82
2021/05/01 08:47:49;;;;;;;10.23;9.23;;;11.10;98.30;;;;;;5100781;23;20493;-81
2021/05/01 08:49:55;;;;;;;9.60;8.60;;;11.40;98.30;;;;;;5100985;23;20513;-84
2021/05/01 08:51:57;;;;;;;11.73;10.50;;;11.50;98.30;;;;;;5092306;23;20480;-80
2021/05/01 08:54:00;;;;;;;9.83;8.47;;;11.40;98.30;;;;;;5092498;23;20479;-79
2021/05/01 08:56:01;;;;;;;10.63;9.03;;;11.80;98.30;;;;;;5092714;23;20450;-80
2021/05/01 08:58:05;;;;;;;10.03;9.03;;;11.70;98.30;;;;;;5092741;23;20454;-81
2021/05/01 09:00:08;;;;;;;10.60;8.57;;;11.40;98.30;;;;;;5092742;23;20952;-80
2021/05/01 09:02:12;;;;;;;9.70;8.17;;;11.90;98.30;;;;;;5092124;23;20909;-80
2021/05/01 09:04:14;;;;;;;11.20;8.47;;;12.00;98.30;;;;;;5091946;23;20454;-81
2021/05/01 09:06:16;;;;;;;10.37;9.13;;;12.10;98.30;;;;;;5092331;23;20772;-80
2021/05/01 09:08:19;;;;;;;9.37;8.47;;;12.10;98.30;;;;;;5091575;23;20454;-80
2021/05/01 09:10:38;;;;;;;10.10;9.03;;;11.90;98.30;;;;;;5091978;23;20451;-82
2021/05/01 09:12:43;;;;;;;10.20;8.13;;;12.20;98.30;;;;;;5101319;23;20456;-81
2021/05/01 09:14:57;;;;;;;9.70;8.80;;;12.30;97.30;;;;;;5093539;23;20459;-83
2021/05/01 09:17:00;;;;;;;9.90;9.00;;;12.00;98.00;;;;;;5092999;23;20801;-80
2021/05/01 09:19:03;;;;;;;10.10;9.10;;;12.30;96.30;;;;;;5100850;23;20458;-80
2021/05/01 09:21:14;;;;;;;9.50;8.60;;;12.30;97.00;;;;;;5101236;23;20453;-81
2021/05/01 09:23:16;;;;;;;10.30;9.30;;;12.60;97.00;;;;;;5101490;23;20537;-81
2021/05/01 09:25:18;;;;;;;11.27;9.17;;;13.10;96.20;;;;;;5100873;23;20447;-81
2021/05/01 09:27:25;;;;;;;11.53;8.50;;;13.20;95.40;;;;;;5100784;23;20447;-80
2021/05/01 09:29:32;;;;;;;11.37;9.03;;;13.20;93.10;;;;;;5092101;23;20510;-81
2021/05/01 09:31:41;;;;;;;10.43;8.97;;;13.00;94.10;;;;;;5093002;23;20510;-81
2021/05/01 09:33:44;;;;;;;8.90;8.10;;;13.10;94.10;;;;;;5093149;23;20462;-82
2021/05/01 09:35:49;;;;;;;10.03;9.00;;;13.00;94.70;;;;;;5101079;23;20464;-80
2021/05/01 09:37:52;;;;;;;10.27;8.47;;;13.00;95.00;;;;;;5093122;23;20498;-81
2021/05/01 09:39:56;;;;;;;9.27;8.33;;;13.10;94.40;;;;;;5093234;23;20459;-81
2021/05/01 09:41:58;;;;;;;10.10;8.67;;;13.30;93.00;;;;;;5092300;23;20455;-81
2021/05/01 09:44:04;;;;;;;10.43;8.80;;;13.30;93.20;;;;;;5092241;23;20447;-82
2021/05/01 09:46:14;;;;;;;9.20;8.30;;;13.40;92.10;;;;;;5101331;23;20455;-82
2021/05/01 09:48:58;;;;;;;9.10;8.20;;;13.80;92.30;;;;;;5093436;23;20455;-82
2021/05/01 09:51:09;;;;;;;8.40;7.67;;;14.30;91.70;;;;;;5101874;23;20442;-82
2021/05/01 09:56:39;;;;;;;30.03;19.83;;;14.30;88.70;;;;;;5094579;23;20739;-82
2021/05/01 09:58:52;;;;;;;36.17;26.00;;;14.80;89.10;;;;;;5068769;23;20472;-82
2021/05/01 10:01:11;;;;;;;49.93;35.63;;;15.20;88.60;;;;;;5094577;23;20454;-82
2021/05/01 10:03:27;;;;;;;10.57;9.57;;;15.40;88.50;;;;;;5095116;23;20478;-81
2021/05/01 10:12:51;;;;;;;9.60;8.60;;;15.30;86.80;;;;;;4937475;24;21145;-81
2021/05/01 10:15:00;;;;;;;10.70;8.63;;;14.90;86.90;;;;;;4998181;23;20532;-83
2021/05/01 10:17:04;;;;;;;9.47;8.50;;;15.30;87.30;;;;;;5089432;23;20529;-83
2021/05/01 10:19:22;;;;;;;11.10;9.00;;;15.40;86.90;;;;;;5094977;23;20454;-83
2021/05/01 10:21:27;;;;;;;9.13;8.20;;;15.40;86.80;;;;;;5092709;23;20784;-81
2021/05/01 10:24:08;;;;;;;9.20;8.30;;;15.10;86.00;;;;;;5090691;23;20876;-81
2021/05/01 10:26:41;;;;;;;8.87;7.83;;;15.00;86.70;;;;;;5098901;23;20786;-81
2021/05/01 10:28:47;;;;;;;8.77;7.97;;;15.30;85.70;;;;;;5091361;23;20461;-83
2021/05/01 10:31:37;;;;;;;9.90;7.90;;;15.30;85.60;;;;;;5103301;23;20449;-83
2021/05/01 10:33:45;;;;;;;9.97;8.23;;;15.20;85.60;;;;;;5094796;23;20458;-82
2021/05/01 10:35:57;;;;;;;10.17;8.27;;;15.30;85.10;;;;;;5093005;23;20546;-82
2021/05/01 10:38:00;;;;;;;8.70;7.90;;;15.50;84.60;;;;;;5091036;23;20454;-81
2021/05/01 10:40:02;;;;;;;9.03;7.70;;;15.50;84.90;;;;;;5090700;23;20451;-81
2021/05/01 10:42:05;;;;;;;9.00;8.20;;;15.70;84.20;;;;;;5091105;23;20537;-79
2021/05/01 10:44:08;;;;;;;8.70;7.80;;;16.00;84.20;;;;;;5091851;23;20447;-81
2021/05/01 10:46:12;;;;;;;8.80;7.90;;;16.70;83.50;;;;;;5092221;23;20773;-81
2021/05/01 10:48:13;;;;;;;8.40;7.60;;;17.20;82.60;;;;;;5092870;23;20755;-81